Autaugaville, AL

12:02 AM CDT on July 04, 2015 (GMT -0500)
Friendship | | Change Station
CLOSE
Current Station
Personal Weather Station
Location: Prattville, AL
Elevation: 482 ft
Nearby Weather Stations

Elev 482 ft 32.53 °N, 86.54 °W | Updated 6 minutes ago

Thunderstorm
Thunderstorm
70.3 °F
Feels Like 70.3 °F
N
2.7
Wind Variable Wind from NE

Today
High -- | Low -- °F
--% Chance of Precip.
Yesterday
High -- | Low -- °F
Precip. -- in
5:44 AM 7:57 PM
Waning Gibbous, 94% visible
Pressure 30.04 in
Visibility 10.0 miles
Clouds Few 2500 ft
Overcast 3100 ft
Dew Point 69 °F
Humidity 96%
Rainfall in
Snow Depth Not available.
UV 0 out of 12
Pollen 2.80 out of 12
Air Quality Not available.
Flu Activity Not available.
METAR KMXF 040458Z AUTO 02007KT 10SM FEW025 OVC031 23/22 A3004 RMK AO2 LTG DSNT N-E TSE27 SLPNO T02310216

More Conditions Fewer Conditions

Pressure 30.04 in
Visibility 10.0 miles
Clouds Few 2500 ft
Overcast 3100 ft
Dew Point 69 °F
Humidity 96%
Rainfall in
Snow Depth Not available.
UV 0 out of 12
Pollen 2.80 out of 12
Air Quality Not available.
Flu Activity Not available.
METAR KMXF 040458Z AUTO 02007KT 10SM FEW025 OVC031 23/22 A3004 RMK AO2 LTG DSNT N-E TSE27 SLPNO T02310216

More Conditions Fewer Conditions

10-Day Weather Forecast

×

Almanac

Astronomy

Jul. 04, 2015 Rise Set
Actual Time
Civil Twilight
Nautical Twilight
Astronomical Twilight
Moon
Length of Visible Light
Length of Day
Tomorrow will be .
, % of the Moon is Illuminated

Today's Extremes

State Highs State Lows

Community

WunderPhotos

Upload Photos

1,834,921 photos uploaded!

WunderBlogs® & News

Nearby

Air Quality

  Air Quality AQ Index Pollutant
Not available.

Snow Depth

Station Depth Elevation

Earthquake Activity

City Distance Mag. Time & Date
Minimum magnitude displayed is 2.5.

Coastal Water Temperatures

Place Temperature

Stations

Nearby Weather Stations

Station Location Temp. Windchill Dew Point Humidity Wind Precip. Elev Updated Type